createdAt,value
2022-08-09T00:01:16.348Z,56.30
2022-08-09T00:04:33.948Z,56.30
2022-08-09T00:07:44.915Z,56.30
2022-08-09T00:10:50.439Z,56.30
2022-08-09T00:13:57.924Z,56.20
2022-08-09T00:17:06.017Z,56.10
2022-08-09T00:20:14.119Z,56.10
2022-08-09T00:23:54.641Z,56.00
2022-08-09T00:26:49.177Z,56.00
2022-08-09T00:30:16.129Z,56.00
2022-08-09T00:33:49.131Z,55.90
2022-08-09T00:36:52.058Z,55.90
2022-08-09T00:40:12.992Z,56.00
2022-08-09T00:44:17.020Z,55.90
2022-08-09T00:46:57.221Z,55.90
2022-08-09T00:50:14.780Z,55.80
2022-08-09T00:53:24.289Z,55.70
2022-08-09T00:56:30.701Z,55.60
2022-08-09T00:59:41.677Z,55.60
2022-08-09T01:02:53.461Z,55.50
2022-08-09T01:06:18.019Z,55.50
2022-08-09T01:09:36.605Z,55.50
2022-08-09T01:12:50.814Z,55.40
2022-08-09T01:15:59.921Z,55.40
2022-08-09T01:19:16.929Z,55.40
2022-08-09T01:22:55.269Z,55.40
2022-08-09T01:26:11.720Z,55.40
2022-08-09T01:29:28.107Z,55.50
2022-08-09T01:32:38.878Z,55.50
2022-08-09T01:35:51.669Z,55.60
2022-08-09T01:38:59.830Z,55.50
2022-08-09T01:42:11.319Z,55.50
2022-08-09T01:45:22.287Z,55.60
2022-08-09T01:48:31.465Z,55.60
2022-08-09T01:51:39.377Z,55.60
2022-08-09T01:54:50.704Z,55.60
2022-08-09T01:57:59.656Z,55.70
2022-08-09T02:01:08.885Z,55.70
2022-08-09T02:04:16.572Z,55.80
2022-08-09T02:08:41.107Z,55.90
2022-08-09T02:10:54.054Z,55.90
2022-08-09T02:14:07.387Z,55.90
2022-08-09T02:18:00.722Z,55.70
2022-08-09T02:20:45.254Z,55.60
2022-08-09T02:23:56.917Z,55.60
2022-08-09T02:27:05.354Z,55.60
2022-08-09T02:30:14.340Z,55.70
2022-08-09T02:33:37.704Z,55.70
2022-08-09T02:36:56.135Z,55.80
2022-08-09T02:40:03.898Z,55.80
2022-08-09T02:43:17.111Z,55.80
2022-08-09T02:46:28.890Z,55.90
2022-08-09T02:49:42.774Z,55.80
2022-08-09T02:52:49.629Z,55.80
2022-08-09T02:56:05.305Z,55.80
2022-08-09T02:59:35.867Z,55.80
2022-08-09T03:02:58.090Z,55.80
2022-08-09T03:06:09.116Z,55.80
2022-08-09T03:09:17.171Z,55.70
2022-08-09T03:12:23.322Z,55.60
2022-08-09T03:15:40.424Z,55.60
2022-08-09T03:18:57.791Z,55.70
2022-08-09T03:22:25.341Z,55.60
2022-08-09T03:25:58.957Z,55.60
2022-08-09T03:29:09.719Z,55.50
2022-08-09T03:32:28.489Z,55.50
2022-08-09T03:36:13.618Z,55.50
2022-08-09T03:39:04.258Z,55.50
2022-08-09T03:42:12.320Z,55.60
2022-08-09T03:45:17.563Z,55.50
2022-08-09T03:48:51.734Z,55.50
2022-08-09T03:52:03.547Z,55.60
2022-08-09T03:55:15.117Z,55.50
2022-08-09T03:58:23.267Z,55.40
2022-08-09T04:01:30.952Z,55.50
2022-08-09T04:04:38.965Z,55.50
2022-08-09T04:07:53.721Z,55.40
2022-08-09T04:11:06.041Z,55.40
2022-08-09T04:14:53.536Z,55.50
2022-08-09T04:17:44.957Z,55.40
2022-08-09T04:20:54.755Z,55.20
2022-08-09T04:24:00.041Z,55.30
2022-08-09T04:27:10.280Z,55.20
2022-08-09T04:30:17.048Z,55.20
2022-08-09T04:33:24.565Z,55.20
2022-08-09T04:36:35.355Z,55.20
2022-08-09T04:39:43.101Z,55.10
2022-08-09T04:42:57.658Z,55.10
2022-08-09T04:46:05.905Z,55.10
2022-08-09T04:49:40.583Z,55.10
2022-08-09T04:52:52.227Z,55.10
2022-08-09T04:55:59.634Z,55.00
2022-08-09T04:59:15.551Z,55.00
2022-08-09T05:02:21.065Z,55.00
2022-08-09T05:05:32.263Z,55.00
2022-08-09T05:09:00.338Z,55.00
2022-08-09T05:12:08.469Z,55.00
2022-08-09T05:15:38.829Z,55.00
2022-08-09T05:18:57.946Z,54.90
2022-08-09T05:22:04.959Z,54.90
2022-08-09T05:25:32.786Z,54.90
2022-08-09T05:28:38.243Z,54.80
2022-08-09T05:31:56.900Z,54.80
2022-08-09T05:35:03.489Z,54.80
2022-08-09T05:38:11.612Z,54.80
2022-08-09T05:41:27.689Z,54.80
2022-08-09T05:44:35.940Z,54.90
2022-08-09T05:47:51.856Z,54.70
2022-08-09T05:51:16.747Z,54.70
2022-08-09T05:54:25.562Z,54.60
2022-08-09T05:57:50.985Z,54.50
2022-08-09T06:01:02.930Z,54.50
2022-08-09T06:04:14.046Z,54.60
2022-08-09T06:07:21.045Z,54.70
2022-08-09T06:10:38.208Z,54.60
2022-08-09T06:13:43.848Z,54.70
2022-08-09T06:16:53.455Z,55.00
2022-08-09T06:20:01.821Z,54.90
2022-08-09T06:23:12.106Z,55.00
2022-08-09T06:26:22.098Z,54.90
2022-08-09T06:29:29.928Z,54.80
2022-08-09T06:33:13.637Z,55.00
2022-08-09T06:36:07.392Z,55.10
2022-08-09T06:39:14.673Z,55.00
2022-08-09T06:42:30.888Z,55.10
2022-08-09T06:46:05.939Z,55.40
2022-08-09T06:49:06.815Z,55.40
2022-08-09T06:52:15.852Z,55.40
2022-08-09T06:55:26.646Z,55.50
2022-08-09T07:00:46.856Z,55.50
2022-08-09T07:02:04.419Z,55.70
2022-08-09T07:05:10.671Z,56.00
2022-08-09T07:08:22.775Z,56.00
2022-08-09T07:11:34.280Z,56.00
2022-08-09T07:14:57.895Z,56.10
2022-08-09T07:18:10.379Z,56.10
2022-08-09T07:21:18.187Z,57.10
2022-08-09T07:24:32.731Z,56.90
2022-08-09T07:27:53.271Z,56.80
2022-08-09T07:30:59.030Z,56.80
2022-08-09T07:34:08.566Z,56.70
2022-08-09T07:37:25.923Z,56.70
2022-08-09T07:41:10.034Z,57.30
2022-08-09T07:44:03.740Z,57.10
2022-08-09T07:47:11.172Z,57.20
2022-08-09T07:50:20.970Z,57.20
2022-08-09T07:54:04.532Z,57.30
2022-08-09T07:57:15.273Z,57.20
2022-08-09T08:00:35.713Z,57.20
2022-08-09T08:03:41.339Z,57.10
2022-08-09T08:06:55.738Z,57.00
2022-08-09T08:10:08.641Z,56.90
2022-08-09T08:13:20.982Z,56.80
2022-08-09T08:16:32.471Z,56.80
2022-08-09T08:19:40.384Z,56.90
2022-08-09T08:22:50.129Z,56.90
2022-08-09T08:26:08.041Z,56.70
2022-08-09T08:29:27.662Z,56.70
2022-08-09T08:32:53.598Z,56.60
2022-08-09T08:36:03.467Z,56.50
2022-08-09T08:39:17.442Z,56.40
2022-08-09T08:46:10.143Z,56.30
2022-08-09T08:49:47.164Z,56.10
2022-08-09T08:53:16.155Z,56.20
2022-08-09T08:56:33.953Z,56.10
2022-08-09T08:59:47.196Z,56.00
2022-08-09T09:03:11.850Z,55.90
2022-08-09T09:06:23.581Z,55.90
2022-08-09T09:09:57.968Z,56.00
2022-08-09T09:13:09.167Z,56.00
2022-08-09T09:16:30.458Z,55.90
2022-08-09T09:20:04.968Z,56.20
2022-08-09T09:23:25.248Z,56.20
2022-08-09T09:26:43.730Z,56.10
2022-08-09T09:30:13.789Z,56.10
2022-08-09T09:33:21.503Z,56.10
2022-08-09T09:36:51.096Z,56.10
2022-08-09T09:40:00.794Z,56.10
2022-08-09T09:43:11.086Z,56.20
2022-08-09T09:50:14.580Z,56.20
2022-08-09T09:53:43.903Z,56.20
2022-08-09T09:58:00.879Z,56.20
2022-08-09T10:00:27.873Z,56.30
2022-08-09T10:03:57.151Z,56.30
2022-08-09T10:07:09.959Z,56.30
2022-08-09T10:10:31.977Z,56.30
2022-08-09T10:13:46.685Z,56.20
2022-08-09T10:17:11.270Z,56.20
2022-08-09T10:20:35.425Z,56.20
2022-08-09T10:23:43.431Z,56.20
2022-08-09T10:26:52.671Z,56.30
2022-08-09T10:30:43.723Z,56.30
2022-08-09T10:34:04.537Z,56.40
2022-08-09T10:36:59.588Z,56.40
2022-08-09T10:40:12.260Z,56.40
2022-08-09T10:43:50.608Z,56.40
2022-08-09T10:48:12.638Z,56.50
2022-08-09T10:50:57.952Z,56.50
2022-08-09T10:54:06.190Z,56.40
2022-08-09T10:57:23.554Z,56.50
2022-08-09T11:01:10.625Z,56.40
2022-08-09T11:04:27.908Z,56.40
2022-08-09T11:07:57.317Z,56.30
2022-08-09T11:11:08.703Z,56.40
2022-08-09T11:14:35.752Z,56.40
2022-08-09T11:17:53.271Z,56.40
2022-08-09T11:21:02.203Z,56.50
2022-08-09T11:24:10.885Z,56.50
2022-08-09T11:28:04.430Z,56.50
2022-08-09T11:30:59.702Z,56.50
2022-08-09T11:34:11.330Z,56.50
2022-08-09T11:37:40.681Z,56.50
2022-08-09T11:40:49.489Z,56.60
2022-08-09T11:44:03.873Z,56.60
2022-08-09T11:47:14.574Z,56.60
2022-08-09T11:50:55.821Z,56.50
2022-08-09T11:53:59.332Z,56.50
2022-08-09T11:57:47.841Z,56.40
2022-08-09T12:01:00.216Z,56.30
2022-08-09T12:04:08.393Z,56.30
2022-08-09T12:07:41.093Z,56.30
2022-08-09T12:10:53.901Z,56.30
2022-08-09T12:14:09.506Z,56.30
2022-08-09T12:17:34.216Z,56.40
2022-08-09T12:20:48.721Z,56.40
2022-08-09T12:24:09.045Z,56.40
2022-08-09T12:28:58.991Z,56.50
2022-08-09T12:30:50.923Z,56.50
2022-08-09T12:33:59.161Z,56.40
2022-08-09T12:37:24.498Z,56.30
2022-08-09T12:40:54.093Z,56.20
2022-08-09T12:44:13.058Z,56.20
2022-08-09T12:47:24.293Z,56.30
2022-08-09T12:50:35.369Z,56.30
2022-08-09T12:53:44.905Z,56.30
2022-08-09T12:57:02.264Z,56.30
2022-08-09T13:00:29.092Z,56.30
2022-08-09T13:03:57.223Z,56.30
2022-08-09T13:07:14.087Z,56.30
2022-08-09T13:10:34.812Z,56.30
2022-08-09T13:14:40.941Z,56.40
2022-08-09T13:17:43.804Z,56.30
2022-08-09T13:22:33.144Z,56.40
2022-08-09T13:24:52.933Z,56.30
2022-08-09T13:28:34.210Z,56.20
2022-08-09T13:36:38.220Z,56.20
2022-08-09T13:41:51.800Z,56.10
2022-08-09T13:48:24.487Z,56.00
2022-08-09T13:52:09.061Z,56.00
2022-08-09T13:55:45.090Z,56.00
2022-08-09T14:04:01.176Z,56.00
2022-08-09T14:07:03.486Z,56.00
2022-08-09T14:10:37.721Z,56.10
2022-08-09T14:18:19.525Z,56.10
2022-08-09T14:22:05.310Z,56.10
2022-08-09T14:25:24.186Z,56.20
2022-08-09T14:30:18.915Z,56.30
2022-08-09T14:32:59.881Z,56.40
2022-08-09T14:36:35.311Z,56.30
2022-08-09T14:40:12.938Z,56.20
2022-08-09T14:43:20.880Z,56.10
2022-08-09T14:46:54.998Z,56.00
2022-08-09T14:50:02.010Z,56.00
2022-08-09T14:53:13.068Z,55.90
2022-08-09T14:56:26.850Z,55.90
2022-08-09T14:59:32.826Z,56.10
2022-08-09T15:02:54.439Z,56.10
2022-08-09T15:06:04.312Z,56.10
2022-08-09T15:10:03.215Z,56.20
2022-08-09T15:13:08.701Z,56.20
2022-08-09T15:16:19.884Z,56.30
2022-08-09T15:19:26.175Z,56.30
2022-08-09T15:22:33.933Z,56.30
2022-08-09T15:25:53.140Z,56.30
2022-08-09T15:29:10.365Z,56.40
2022-08-09T15:32:41.948Z,56.40
2022-08-09T15:36:02.231Z,56.20
2022-08-09T15:39:11.637Z,56.10
2022-08-09T15:42:27.432Z,56.10
2022-08-09T15:46:07.734Z,56.00
2022-08-09T15:49:22.353Z,56.00
2022-08-09T15:52:29.165Z,56.00
2022-08-09T15:56:10.955Z,55.90
2022-08-09T15:59:17.304Z,55.90
2022-08-09T16:02:27.794Z,55.90
2022-08-09T16:05:53.439Z,55.90
2022-08-09T16:09:05.435Z,55.90
2022-08-09T16:12:15.677Z,55.90
2022-08-09T16:16:09.767Z,55.90
2022-08-09T16:19:13.773Z,55.90
2022-08-09T16:22:42.085Z,55.90
2022-08-09T16:26:34.730Z,56.00
2022-08-09T16:30:00.052Z,55.90
2022-08-09T16:33:16.347Z,55.90
2022-08-09T16:36:29.759Z,55.90
2022-08-09T16:39:47.879Z,55.90
2022-08-09T16:43:12.337Z,55.90
2022-08-09T16:46:30.112Z,55.90
2022-08-09T16:50:28.718Z,55.90
2022-08-09T16:53:18.289Z,55.90
2022-08-09T16:56:53.039Z,56.10
2022-08-09T17:04:01.741Z,56.20
2022-08-09T17:08:46.437Z,56.30
2022-08-09T17:10:56.960Z,56.30
2022-08-09T17:14:27.325Z,56.40
2022-08-09T17:17:50.953Z,56.50
2022-08-09T17:21:02.743Z,56.50
2022-08-09T17:24:27.095Z,56.40
2022-08-09T17:27:39.108Z,56.50
2022-08-09T17:30:55.133Z,56.50
2022-08-09T17:34:59.791Z,56.60
2022-08-09T17:38:14.244Z,56.50
2022-08-09T17:42:01.395Z,56.50
2022-08-09T17:45:27.167Z,56.30
2022-08-09T17:48:51.811Z,56.30
2022-08-09T17:52:00.577Z,56.30
2022-08-09T17:55:07.170Z,56.30
2022-08-09T17:58:37.102Z,56.30
2022-08-09T18:02:07.188Z,56.20
2022-08-09T18:05:24.047Z,56.20
2022-08-09T18:08:44.454Z,56.20
2022-08-09T18:12:05.783Z,56.20
2022-08-09T18:15:50.417Z,56.10
2022-08-09T18:18:54.546Z,56.30
2022-08-09T18:22:01.257Z,56.30
2022-08-09T18:25:12.744Z,56.40
2022-08-09T18:30:34.564Z,56.40
2022-08-09T18:31:59.496Z,56.40
2022-08-09T18:35:13.587Z,56.30
2022-08-09T18:38:28.065Z,56.30
2022-08-09T18:41:37.283Z,56.30
2022-08-09T18:44:49.874Z,56.30
2022-08-09T18:47:58.634Z,56.30
2022-08-09T18:51:10.026Z,56.30
2022-08-09T18:54:28.413Z,56.30
2022-08-09T18:57:42.615Z,56.40
2022-08-09T19:00:48.538Z,56.40
2022-08-09T19:04:06.358Z,56.30
2022-08-09T19:07:16.666Z,56.40
2022-08-09T19:10:25.938Z,56.40
2022-08-09T19:13:38.564Z,56.40
2022-08-09T19:16:57.552Z,56.30
2022-08-09T19:20:03.353Z,56.40
2022-08-09T19:23:16.573Z,56.40
2022-08-09T19:26:31.060Z,56.40
2022-08-09T19:30:25.305Z,56.50
2022-08-09T19:33:14.320Z,56.50
2022-08-09T19:36:30.869Z,56.50
2022-08-09T19:40:02.942Z,56.40
2022-08-09T19:43:16.494Z,56.40
2022-08-09T19:46:50.634Z,56.50
2022-08-09T19:50:07.861Z,56.40
2022-08-09T19:53:48.036Z,56.50
2022-08-09T19:56:58.881Z,56.90
2022-08-09T20:00:19.446Z,58.30
2022-08-09T20:04:25.152Z,59.80
2022-08-09T20:07:01.035Z,61.50
2022-08-09T20:10:17.401Z,62.10
2022-08-09T20:13:32.240Z,63.00
2022-08-09T20:16:54.367Z,63.50
2022-08-09T20:20:00.470Z,63.10
2022-08-09T20:23:15.857Z,63.10
2022-08-09T20:26:21.079Z,62.90
2022-08-09T20:29:37.963Z,62.70
2022-08-09T20:32:45.706Z,62.40
2022-08-09T20:36:04.157Z,61.80
2022-08-09T20:39:29.192Z,62.00
2022-08-09T20:42:38.359Z,61.90
2022-08-09T20:46:01.766Z,61.80
2022-08-09T20:49:14.182Z,61.50
2022-08-09T20:52:21.888Z,61.00
2022-08-09T20:55:47.440Z,60.50
2022-08-09T20:58:58.683Z,60.50
2022-08-09T21:02:10.169Z,60.50
2022-08-09T21:05:53.364Z,60.40
2022-08-09T21:08:44.315Z,60.30
2022-08-09T21:15:13.933Z,59.80
2022-08-09T21:18:27.341Z,60.00
2022-08-09T21:21:53.693Z,60.00
2022-08-09T21:25:16.290Z,60.00
2022-08-09T21:28:34.513Z,59.90
2022-08-09T21:35:18.259Z,59.80
2022-08-09T21:38:31.195Z,59.80
2022-08-09T21:42:04.739Z,59.70
2022-08-09T21:45:04.194Z,59.60
2022-08-09T21:48:11.519Z,59.30
2022-08-09T21:51:35.692Z,59.20
2022-08-09T21:54:49.540Z,59.00
2022-08-09T21:58:00.354Z,58.70
2022-08-09T22:01:11.876Z,58.60
2022-08-09T22:04:55.497Z,58.50
2022-08-09T22:08:02.575Z,58.50
2022-08-09T22:12:05.515Z,58.50
2022-08-09T22:14:39.703Z,58.40
2022-08-09T22:17:47.157Z,58.50
2022-08-09T22:20:54.970Z,58.40
2022-08-09T22:24:04.033Z,58.30
2022-08-09T22:27:12.492Z,58.30
2022-08-09T22:30:31.381Z,58.30
2022-08-09T22:33:48.756Z,58.20
2022-08-09T22:37:01.260Z,58.10
2022-08-09T22:40:20.014Z,58.00
2022-08-09T22:44:03.196Z,57.90
2022-08-09T22:48:16.877Z,57.90
2022-08-09T22:50:25.217Z,57.90
2022-08-09T22:53:44.122Z,57.80
2022-08-09T22:57:00.879Z,57.80
2022-08-09T23:00:12.076Z,57.70
2022-08-09T23:03:31.035Z,57.80
2022-08-09T23:07:00.710Z,57.90
2022-08-09T23:10:07.277Z,57.90
2022-08-09T23:13:17.602Z,57.90
2022-08-09T23:16:24.312Z,57.80
2022-08-09T23:19:31.716Z,57.90
2022-08-09T23:22:57.231Z,57.90
2022-08-09T23:26:05.152Z,57.80
2022-08-09T23:29:14.806Z,57.70
2022-08-09T23:32:22.275Z,57.50
2022-08-09T23:35:27.972Z,57.40
2022-08-09T23:38:48.646Z,57.50
2022-08-09T23:41:55.085Z,57.40
2022-08-09T23:45:05.162Z,57.40
2022-08-09T23:48:14.205Z,57.40
2022-08-09T23:51:21.394Z,57.30
2022-08-09T23:54:27.575Z,57.30
2022-08-09T23:57:55.515Z,57.30
